Time;durP1;ratioP1;P1;durP2;ratioP2;P2;SDS_P1;SDS_P2;PMS_P1;PMS_P2;Temp;Humidity;BMP_temperature;BMP_pressure;BME280_temperature;BME280_humidity;BME280_pressure;Samples;Min_cycle;Max_cycle;Signal;HPM_P1;HPM_P2
2023/01/23 00:00:58;;;;;;;8.45;6.18;;;4.60;80.60;;;;;;5073228;28;20056;-84
2023/01/23 00:03:24;;;;;;;9.00;6.65;;;4.60;80.60;;;;;;5053559;28;20028;-84
2023/01/23 00:06:00;;;;;;;7.90;5.93;;;4.60;80.60;;;;;;5092481;28;20050;-84
2023/01/23 00:08:27;;;;;;;8.20;6.20;;;4.60;80.60;;;;;;5075154;28;20028;-83
2023/01/23 00:10:53;;;;;;;8.82;6.38;;;4.60;80.50;;;;;;5095160;28;20457;-83
2023/01/23 00:13:19;;;;;;;8.27;6.10;;;4.60;80.60;;;;;;5073712;28;20565;-84
2023/01/23 00:15:46;;;;;;;8.60;6.47;;;4.60;80.60;;;;;;5058668;28;20035;-83
2023/01/23 00:18:12;;;;;;;8.55;6.50;;;4.60;80.60;;;;;;5082892;28;20435;-83
2023/01/23 00:20:39;;;;;;;7.97;5.95;;;4.60;80.60;;;;;;5081991;28;20038;-84
2023/01/23 00:23:05;;;;;;;8.57;6.82;;;4.60;80.50;;;;;;5079960;28;20036;-83
2023/01/23 00:25:33;;;;;;;7.53;6.20;;;4.60;80.50;;;;;;5068791;28;20046;-83
2023/01/23 00:27:59;;;;;;;8.45;6.10;;;4.60;80.50;;;;;;5100073;28;20077;-84
2023/01/23 00:30:24;;;;;;;9.15;6.80;;;4.60;80.50;;;;;;5096904;28;20028;-83
2023/01/23 00:32:50;;;;;;;8.85;6.40;;;4.70;80.50;;;;;;5085696;28;20074;-83
2023/01/23 00:35:16;;;;;;;8.30;6.55;;;4.60;80.50;;;;;;5064206;28;20024;-83
2023/01/23 00:37:42;;;;;;;7.20;5.93;;;4.70;80.50;;;;;;5074268;28;20024;-84
2023/01/23 00:40:09;;;;;;;7.43;5.88;;;4.70;80.50;;;;;;5065418;28;20036;-84
2023/01/23 00:42:37;;;;;;;8.40;6.28;;;4.70;80.50;;;;;;5083204;28;20024;-86
2023/01/23 00:45:03;;;;;;;7.93;5.82;;;4.70;80.60;;;;;;5063105;28;20111;-83
2023/01/23 00:47:29;;;;;;;8.73;6.45;;;4.70;80.60;;;;;;5050480;28;20036;-84
2023/01/23 00:49:57;;;;;;;8.45;5.82;;;4.70;80.60;;;;;;5065475;28;20085;-83
2023/01/23 00:52:26;;;;;;;8.68;6.03;;;4.70;80.60;;;;;;5067307;28;20032;-83
2023/01/23 00:54:52;;;;;;;7.68;6.18;;;4.70;80.60;;;;;;5059789;28;20087;-83
2023/01/23 00:57:18;;;;;;;8.10;6.15;;;4.70;80.50;;;;;;5080423;28;20115;-85
2023/01/23 00:59:45;;;;;;;8.52;6.03;;;4.70;80.60;;;;;;5047746;28;20084;-84
2023/01/23 01:02:11;;;;;;;7.93;6.43;;;4.70;80.60;;;;;;5063721;28;20122;-83
2023/01/23 01:04:36;;;;;;;9.57;6.40;;;4.70;80.60;;;;;;5068713;28;20032;-84
2023/01/23 01:07:02;;;;;;;10.38;6.97;;;4.70;80.60;;;;;;5065452;28;20035;-83
2023/01/23 01:09:28;;;;;;;8.52;6.35;;;4.70;80.60;;;;;;5097836;28;20488;-83
2023/01/23 01:11:53;;;;;;;7.80;6.13;;;4.70;80.60;;;;;;5069486;28;20048;-83
2023/01/23 01:14:19;;;;;;;8.48;6.68;;;4.70;80.60;;;;;;5082343;28;20111;-85
2023/01/23 01:16:46;;;;;;;8.48;6.35;;;4.70;80.60;;;;;;5069288;28;20544;-83
2023/01/23 01:19:13;;;;;;;9.13;5.93;;;4.70;80.60;;;;;;5071351;28;20385;-83
2023/01/23 01:21:41;;;;;;;8.40;6.38;;;4.70;80.60;;;;;;5092733;28;20484;-84
2023/01/23 01:24:07;;;;;;;8.23;5.93;;;4.70;80.60;;;;;;5082906;28;20048;-83
2023/01/23 01:26:33;;;;;;;9.10;6.80;;;4.70;80.60;;;;;;5093081;28;20047;-83
2023/01/23 01:28:59;;;;;;;8.40;5.95;;;4.70;80.60;;;;;;5082927;28;20055;-82
2023/01/23 01:31:26;;;;;;;9.68;6.80;;;4.70;80.60;;;;;;5065092;28;20476;-82
2023/01/23 01:33:53;;;;;;;8.70;6.68;;;4.70;80.60;;;;;;5070680;28;20032;-82
2023/01/23 01:36:21;;;;;;;8.25;6.47;;;4.70;80.60;;;;;;5062883;28;20393;-83
2023/01/23 01:38:47;;;;;;;8.32;6.40;;;4.70;80.60;;;;;;5076755;28;20521;-82
2023/01/23 01:41:13;;;;;;;7.82;6.15;;;4.70;80.50;;;;;;5076739;28;20035;-83
2023/01/23 01:43:39;;;;;;;8.45;6.03;;;4.70;80.50;;;;;;5100117;28;20437;-82
2023/01/23 01:46:11;;;;;;;9.02;6.60;;;4.70;80.60;;;;;;5080577;28;20024;-82
2023/01/23 01:48:48;;;;;;;8.68;7.00;;;4.80;80.70;;;;;;5064062;28;20059;-82
2023/01/23 01:51:32;;;;;;;8.88;6.60;;;4.70;80.60;;;;;;5068502;28;20024;-83
2023/01/23 01:54:15;;;;;;;8.50;6.50;;;4.70;80.50;;;;;;5088077;28;20038;-86
2023/01/23 01:57:08;;;;;;;7.85;6.25;;;4.80;80.70;;;;;;5077591;28;20028;-83
2023/01/23 01:59:40;;;;;;;8.82;6.75;;;4.70;80.60;;;;;;5075000;28;20024;-83
2023/01/23 02:02:11;;;;;;;8.63;6.70;;;4.70;81.20;;;;;;5074935;28;20027;-83
2023/01/23 02:04:42;;;;;;;7.72;5.93;;;4.70;80.60;;;;;;5076655;28;20024;-84
2023/01/23 02:07:21;;;;;;;7.63;6.07;;;4.70;80.70;;;;;;5076899;28;20027;-82
2023/01/23 02:09:48;;;;;;;8.27;6.45;;;4.70;80.70;;;;;;5076800;28;20476;-83
2023/01/23 02:12:13;;;;;;;8.88;6.60;;;4.70;80.60;;;;;;5074862;28;20077;-85
2023/01/23 02:14:40;;;;;;;11.10;7.32;;;4.70;80.60;;;;;;5078608;28;20028;-86
2023/01/23 02:17:05;;;;;;;9.10;6.68;;;4.80;80.60;;;;;;5059674;28;20032;-84
2023/01/23 02:20:23;;;;;;;9.35;7.00;;;4.70;80.60;;;;;;5080041;28;20385;-84
2023/01/23 02:23:27;;;;;;;8.55;6.35;;;4.70;80.70;;;;;;5038768;28;20039;-78
2023/01/23 02:26:02;;;;;;;7.68;6.05;;;4.70;80.60;;;;;;5005156;28;20058;-82
2023/01/23 02:28:46;;;;;;;8.80;6.38;;;4.70;80.60;;;;;;5055011;28;20048;-83
2023/01/23 02:31:15;;;;;;;8.25;6.28;;;4.70;80.60;;;;;;5068056;28;20052;-83
2023/01/23 02:33:46;;;;;;;8.57;6.28;;;4.70;80.60;;;;;;5075912;28;20096;-83
2023/01/23 02:36:13;;;;;;;8.57;6.13;;;4.70;80.60;;;;;;5081933;28;20033;-87
2023/01/23 02:38:49;;;;;;;8.82;6.75;;;4.80;80.60;;;;;;5082720;28;20442;-84
2023/01/23 02:41:19;;;;;;;9.02;6.72;;;4.80;80.70;;;;;;5087519;28;20481;-84
2023/01/23 02:43:47;;;;;;;9.38;6.70;;;4.80;80.70;;;;;;5070551;28;20027;-84
2023/01/23 02:46:14;;;;;;;9.25;6.57;;;4.80;80.70;;;;;;5087759;28;20130;-83
2023/01/23 02:48:42;;;;;;;9.15;6.63;;;4.80;80.70;;;;;;5060851;28;20832;-84
2023/01/23 02:51:08;;;;;;;8.98;6.63;;;4.80;80.60;;;;;;5071054;28;20032;-83
2023/01/23 02:53:34;;;;;;;8.43;6.28;;;4.80;80.60;;;;;;5075826;28;20115;-83
2023/01/23 02:56:00;;;;;;;8.45;6.18;;;4.80;80.60;;;;;;5075964;28;20335;-84
2023/01/23 03:01:10;;;;;;;9.27;7.07;;;4.90;80.70;;;;;;5056073;28;20058;-84
2023/01/23 03:03:41;;;;;;;9.38;7.05;;;4.80;80.60;;;;;;5057540;28;20092;-84
2023/01/23 03:06:07;;;;;;;8.48;6.22;;;4.80;80.60;;;;;;5062125;28;20062;-83
2023/01/23 03:08:35;;;;;;;8.63;6.28;;;4.90;80.60;;;;;;5060969;28;20035;-85
2023/01/23 03:11:02;;;;;;;7.78;6.18;;;4.80;80.50;;;;;;5057123;28;20036;-83
2023/01/23 03:13:29;;;;;;;9.10;6.57;;;4.80;80.60;;;;;;5057035;28;20592;-87
2023/01/23 03:15:56;;;;;;;8.57;6.65;;;4.90;80.60;;;;;;5065117;28;20024;-86
2023/01/23 03:18:23;;;;;;;8.68;7.20;;;4.90;80.60;;;;;;5073288;28;20476;-85
2023/01/23 03:20:49;;;;;;;8.35;6.65;;;4.90;80.60;;;;;;5075890;28;20039;-83
2023/01/23 03:23:15;;;;;;;9.05;6.63;;;4.90;80.60;;;;;;5060538;28;20028;-84
2023/01/23 03:25:45;;;;;;;9.00;6.63;;;4.90;80.60;;;;;;5073947;28;20032;-84
2023/01/23 03:30:11;;;;;;;9.00;6.47;;;4.90;80.60;;;;;;5057302;28;20056;-84
2023/01/23 03:30:57;;;;;;;9.85;6.72;;;4.90;80.60;;;;;;5064689;28;20059;-84
2023/01/23 03:33:23;;;;;;;9.32;6.53;;;4.90;80.60;;;;;;5094408;28;20063;-84
2023/01/23 03:35:49;;;;;;;10.40;6.78;;;4.90;80.60;;;;;;5076523;28;20028;-85
2023/01/23 03:38:18;;;;;;;8.98;6.60;;;4.90;80.60;;;;;;5057145;28;20432;-83
2023/01/23 03:43:33;;;;;;;9.02;6.50;;;4.90;80.60;;;;;;5073090;28;20036;-83
2023/01/23 03:45:59;;;;;;;8.85;6.60;;;4.90;80.50;;;;;;5056369;28;20093;-86
2023/01/23 03:48:25;;;;;;;9.40;6.93;;;4.90;80.60;;;;;;5042313;28;20501;-86
2023/01/23 03:50:51;;;;;;;8.50;6.68;;;4.90;80.60;;;;;;5051991;28;20040;-83
2023/01/23 03:53:20;;;;;;;8.93;6.60;;;4.90;80.60;;;;;;5084131;28;20024;-84
2023/01/23 03:55:47;;;;;;;9.25;6.70;;;4.90;80.50;;;;;;5059841;28;20283;-84
2023/01/23 03:58:13;;;;;;;9.68;6.78;;;4.90;80.50;;;;;;5044394;28;20035;-84
2023/01/23 04:00:42;;;;;;;8.95;6.72;;;4.90;80.50;;;;;;5074020;28;20089;-86
2023/01/23 04:03:07;;;;;;;8.80;6.57;;;5.00;80.60;;;;;;5066181;28;20024;-85
2023/01/23 04:05:35;;;;;;;8.25;6.80;;;4.90;80.50;;;;;;5074648;28;20028;-83
2023/01/23 04:08:01;;;;;;;8.65;6.53;;;5.00;80.50;;;;;;5033610;28;20031;-83
2023/01/23 04:10:28;;;;;;;9.32;7.28;;;5.00;80.50;;;;;;5070192;28;20089;-83
2023/01/23 04:12:59;;;;;;;8.75;6.30;;;5.00;80.60;;;;;;5058948;28;20036;-84
2023/01/23 04:15:24;;;;;;;9.38;7.28;;;5.00;80.50;;;;;;5093721;28;20024;-83
2023/01/23 04:17:53;;;;;;;8.70;6.32;;;5.00;80.70;;;;;;5048748;28;20028;-83
2023/01/23 04:20:21;;;;;;;8.98;7.18;;;5.00;80.50;;;;;;5055134;28;20020;-84
2023/01/23 04:22:47;;;;;;;8.88;7.00;;;5.00;80.70;;;;;;5059161;28;20374;-85
2023/01/23 04:25:13;;;;;;;7.57;5.80;;;5.00;80.70;;;;;;5062858;28;20059;-83
2023/01/23 04:27:39;;;;;;;9.07;6.75;;;5.00;80.60;;;;;;5057978;28;20048;-83
2023/01/23 04:30:08;;;;;;;8.13;5.97;;;5.00;80.60;;;;;;5056592;28;20395;-83
2023/01/23 04:32:34;;;;;;;8.85;6.97;;;5.00;80.60;;;;;;5058049;28;20036;-84
2023/01/23 04:35:00;;;;;;;9.48;7.13;;;5.00;80.60;;;;;;5046529;28;20074;-84
2023/01/23 04:37:26;;;;;;;8.60;6.50;;;5.00;80.50;;;;;;5059204;28;20034;-83
2023/01/23 04:39:52;;;;;;;9.50;7.00;;;5.00;80.60;;;;;;5081035;28;20131;-83
2023/01/23 04:42:18;;;;;;;10.27;6.60;;;5.00;80.50;;;;;;5055550;28;20024;-83
2023/01/23 04:45:08;;;;;;;8.45;6.30;;;5.00;80.60;;;;;;5071972;28;20115;-83
2023/01/23 04:47:59;;;;;;;8.48;6.00;;;5.00;80.50;;;;;;5053368;28;20414;-83
2023/01/23 04:50:25;;;;;;;9.77;7.07;;;5.00;80.50;;;;;;5053743;28;20031;-83
2023/01/23 04:52:51;;;;;;;9.50;7.43;;;5.00;80.50;;;;;;5082180;28;20028;-85
2023/01/23 04:55:17;;;;;;;9.18;6.90;;;5.00;81.10;;;;;;5074903;28;20032;-83
2023/01/23 04:57:43;;;;;;;8.95;6.90;;;5.10;80.50;;;;;;5046848;28;21341;-83
2023/01/23 05:00:17;;;;;;;8.27;6.57;;;5.00;80.50;;;;;;5055131;28;20025;-84
2023/01/23 05:02:45;;;;;;;8.85;6.72;;;5.00;80.50;;;;;;5072546;28;20074;-83
2023/01/23 05:05:11;;;;;;;8.10;6.45;;;5.10;80.60;;;;;;5059197;28;20066;-84
2023/01/23 05:07:37;;;;;;;9.05;7.18;;;5.10;80.60;;;;;;5056662;28;20070;-84
2023/01/23 05:10:09;;;;;;;8.85;6.50;;;5.10;80.50;;;;;;5063561;28;20028;-84
2023/01/23 05:12:36;;;;;;;8.85;6.53;;;5.00;80.50;;;;;;5064554;28;20170;-84
2023/01/23 05:15:03;;;;;;;8.55;6.70;;;5.10;80.50;;;;;;5077312;28;20119;-83
2023/01/23 05:17:29;;;;;;;8.65;6.57;;;5.10;80.50;;;;;;5065720;28;20027;-84
2023/01/23 05:19:55;;;;;;;7.85;6.22;;;5.10;80.50;;;;;;5061302;28;20040;-83
2023/01/23 05:22:21;;;;;;;8.45;7.05;;;5.10;80.50;;;;;;5062543;28;20465;-85
2023/01/23 05:24:47;;;;;;;8.75;6.60;;;5.10;80.50;;;;;;5079496;28;20134;-83
2023/01/23 05:27:14;;;;;;;8.15;6.38;;;5.10;80.60;;;;;;5032342;28;20392;-82
2023/01/23 05:29:42;;;;;;;9.55;6.70;;;5.10;80.50;;;;;;5042302;28;20025;-84
2023/01/23 05:32:17;;;;;;;9.07;6.82;;;5.10;80.60;;;;;;5079614;28;20077;-81
2023/01/23 05:34:43;;;;;;;9.07;6.68;;;5.10;80.50;;;;;;5075460;28;20077;-83
2023/01/23 05:37:24;;;;;;;8.75;6.55;;;5.10;80.50;;;;;;5044653;28;20028;-83
2023/01/23 05:39:51;;;;;;;7.95;6.43;;;5.10;80.50;;;;;;5064260;28;20055;-83
2023/01/23 05:42:17;;;;;;;8.57;6.85;;;5.10;80.50;;;;;;5062717;28;20025;-83
2023/01/23 05:44:55;;;;;;;8.88;6.22;;;5.10;80.60;;;;;;5065051;28;20097;-83
2023/01/23 05:47:41;;;;;;;8.52;6.53;;;5.10;80.50;;;;;;5063008;28;20024;-82
2023/01/23 05:50:12;;;;;;;8.65;7.15;;;5.10;80.50;;;;;;5059726;28;20028;-83
2023/01/23 05:52:38;;;;;;;9.88;7.00;;;5.20;80.60;;;;;;5081144;28;20055;-84
2023/01/23 05:55:05;;;;;;;8.98;6.63;;;5.10;80.50;;;;;;5064697;28;20055;-83
2023/01/23 05:57:33;;;;;;;8.48;6.43;;;5.10;80.50;;;;;;5075765;28;20034;-85
2023/01/23 06:00:24;;;;;;;8.68;6.85;;;5.20;80.50;;;;;;5088592;28;20036;-84
2023/01/23 06:03:10;;;;;;;8.43;6.18;;;5.20;80.50;;;;;;5096004;28;20036;-83
2023/01/23 06:06:06;;;;;;;9.18;6.80;;;5.20;80.50;;;;;;5011148;28;20037;-84
2023/01/23 06:08:31;;;;;;;9.00;6.55;;;5.20;80.40;;;;;;5076931;28;20139;-84
2023/01/23 06:10:58;;;;;;;8.73;7.05;;;5.20;80.50;;;;;;5040617;28;20016;-78
2023/01/23 06:13:26;;;;;;;9.20;6.70;;;5.10;80.50;;;;;;5076989;28;20141;-82
2023/01/23 06:15:52;;;;;;;8.35;6.63;;;5.20;80.50;;;;;;5075844;28;20032;-85
2023/01/23 06:18:18;;;;;;;8.85;6.60;;;5.20;80.50;;;;;;5058527;28;20044;-84
2023/01/23 06:20:44;;;;;;;9.30;6.82;;;5.20;80.50;;;;;;5057752;28;20051;-85
2023/01/23 06:23:09;;;;;;;9.40;6.80;;;5.20;80.50;;;;;;5061801;28;20039;-87
2023/01/23 06:25:36;;;;;;;9.43;7.57;;;5.20;80.60;;;;;;5057881;28;20023;-87
2023/01/23 06:28:06;;;;;;;8.27;6.70;;;5.20;80.60;;;;;;5040718;28;20103;-84
2023/01/23 06:30:34;;;;;;;8.93;7.07;;;5.20;80.60;;;;;;5052939;28;20029;-84
2023/01/23 06:33:00;;;;;;;8.18;6.38;;;5.20;80.60;;;;;;5036542;28;20028;-84
2023/01/23 06:35:33;;;;;;;8.80;6.97;;;5.20;80.60;;;;;;5052112;28;20052;-84
2023/01/23 06:37:59;;;;;;;9.52;7.38;;;5.20;80.50;;;;;;5036371;28;20409;-84
2023/01/23 06:40:24;;;;;;;8.45;6.53;;;5.20;80.50;;;;;;5021394;28;20052;-83
2023/01/23 06:43:13;;;;;;;9.10;7.00;;;5.20;80.50;;;;;;5034720;28;20053;-85
2023/01/23 06:45:44;;;;;;;10.20;7.30;;;5.20;81.10;;;;;;5035450;28;20492;-85
2023/01/23 06:48:10;;;;;;;8.02;6.65;;;5.20;80.60;;;;;;5035841;28;20439;-84
2023/01/23 06:50:37;;;;;;;9.05;7.30;;;5.20;80.50;;;;;;5028461;28;20029;-84
2023/01/23 06:53:04;;;;;;;10.38;7.53;;;5.20;80.50;;;;;;5046488;28;20025;-85
2023/01/23 06:55:31;;;;;;;9.50;6.82;;;5.20;80.50;;;;;;5018470;28;20034;-86
2023/01/23 06:57:57;;;;;;;10.65;6.85;;;5.20;80.50;;;;;;5019665;28;20025;-83
2023/01/23 07:00:23;;;;;;;10.05;7.32;;;5.20;80.50;;;;;;5050992;28;20029;-83
2023/01/23 07:02:52;;;;;;;9.60;7.30;;;5.20;80.50;;;;;;5020546;28;20056;-83
2023/01/23 07:05:18;;;;;;;9.13;7.32;;;5.20;80.50;;;;;;5057844;28;20056;-85
2023/01/23 07:07:45;;;;;;;8.88;6.85;;;5.20;80.50;;;;;;5035709;28;20025;-84
2023/01/23 07:10:11;;;;;;;9.65;7.45;;;5.30;80.60;;;;;;5054721;28;20493;-84
2023/01/23 07:12:37;;;;;;;9.18;6.80;;;5.30;80.60;;;;;;5031899;28;20048;-84
2023/01/23 07:15:03;;;;;;;9.77;7.45;;;5.20;80.50;;;;;;5037184;28;20036;-84
2023/01/23 07:17:37;;;;;;;9.45;7.28;;;5.20;80.50;;;;;;5041145;28;20032;-82
2023/01/23 07:20:03;;;;;;;9.82;7.50;;;5.30;80.60;;;;;;5053595;28;20037;-82
2023/01/23 07:22:28;;;;;;;8.88;6.60;;;5.30;80.60;;;;;;5049856;28;20025;-84
2023/01/23 07:24:54;;;;;;;9.77;7.32;;;5.30;80.60;;;;;;5051085;28;20025;-83
2023/01/23 07:27:20;;;;;;;9.20;7.07;;;5.30;80.60;;;;;;5050015;28;20113;-83
2023/01/23 07:29:46;;;;;;;9.20;7.15;;;5.30;80.50;;;;;;5040473;28;20036;-84
2023/01/23 07:32:12;;;;;;;8.68;6.65;;;5.30;80.50;;;;;;5012220;28;20079;-83
2023/01/23 07:34:37;;;;;;;9.48;7.45;;;5.30;80.50;;;;;;5038867;28;20056;-86
2023/01/23 07:37:03;;;;;;;9.63;7.68;;;5.30;80.50;;;;;;5032138;28;20432;-83
2023/01/23 07:39:29;;;;;;;9.98;8.05;;;5.30;80.60;;;;;;5037235;28;20489;-82
2023/01/23 07:41:54;;;;;;;8.73;6.93;;;5.30;80.50;;;;;;5018464;28;20037;-83
2023/01/23 07:44:22;;;;;;;9.98;7.28;;;5.30;80.60;;;;;;5063263;28;20033;-83
2023/01/23 07:46:48;;;;;;;10.43;7.85;;;5.30;80.50;;;;;;5011672;28;20029;-85
2023/01/23 07:49:14;;;;;;;9.90;7.13;;;5.30;80.50;;;;;;5033831;28;20029;-85
2023/01/23 07:51:40;;;;;;;9.30;7.22;;;5.30;80.50;;;;;;5019493;28;20048;-82
2023/01/23 07:54:07;;;;;;;9.25;7.20;;;5.30;80.50;;;;;;5043351;28;20158;-83
2023/01/23 07:56:33;;;;;;;9.35;7.65;;;5.40;80.60;;;;;;5046130;28;20039;-84
2023/01/23 07:58:59;;;;;;;8.80;6.93;;;5.40;80.50;;;;;;5048921;28;20379;-84
2023/01/23 08:01:25;;;;;;;8.80;7.20;;;5.30;80.50;;;;;;5027344;28;20033;-84
2023/01/23 08:03:52;;;;;;;9.82;8.00;;;5.40;80.50;;;;;;5052393;28;20029;-83
2023/01/23 08:06:18;;;;;;;8.98;7.00;;;5.40;80.50;;;;;;5029903;28;20496;-84
2023/01/23 08:08:46;;;;;;;9.52;7.20;;;5.40;80.50;;;;;;5044659;28;20119;-82
2023/01/23 08:11:12;;;;;;;8.55;6.78;;;5.40;80.60;;;;;;5046623;28;20074;-84
2023/01/23 08:13:38;;;;;;;10.38;7.28;;;5.30;80.50;;;;;;5058405;28;20032;-83
2023/01/23 08:16:04;;;;;;;9.35;6.80;;;5.40;80.60;;;;;;5054312;28;20037;-84
2023/01/23 08:18:31;;;;;;;9.00;7.38;;;5.30;80.60;;;;;;5059948;28;20546;-83
2023/01/23 08:20:58;;;;;;;9.52;7.45;;;5.40;80.60;;;;;;5031771;28;20029;-85
2023/01/23 08:23:25;;;;;;;9.77;7.20;;;5.40;80.50;;;;;;5053034;28;20025;-85
2023/01/23 08:25:52;;;;;;;9.85;7.20;;;5.40;80.50;;;;;;5034985;28;20037;-86
2023/01/23 08:28:18;;;;;;;9.30;7.30;;;5.40;80.60;;;;;;5045621;28;20060;-85
2023/01/23 08:30:44;;;;;;;8.73;6.80;;;5.40;80.60;;;;;;5021998;28;20021;-86
2023/01/23 08:33:09;;;;;;;9.73;7.13;;;5.40;80.60;;;;;;5058586;28;20024;-85
2023/01/23 08:35:36;;;;;;;8.65;7.03;;;5.40;80.60;;;;;;5035121;28;20757;-87
2023/01/23 08:38:02;;;;;;;8.98;6.70;;;5.40;80.60;;;;;;5051511;28;20054;-83
2023/01/23 08:40:29;;;;;;;8.65;6.75;;;5.40;80.60;;;;;;5050804;28;20025;-83
2023/01/23 08:42:54;;;;;;;9.20;7.35;;;5.40;80.60;;;;;;5059956;28;20021;-86
2023/01/23 08:45:21;;;;;;;10.00;7.53;;;5.40;80.50;;;;;;5055430;28;20077;-85
2023/01/23 08:47:47;;;;;;;8.23;6.70;;;5.40;80.50;;;;;;5055772;28;20025;-86
2023/01/23 08:50:13;;;;;;;9.45;7.55;;;5.40;80.50;;;;;;5058587;28;20052;-85
2023/01/23 08:52:39;;;;;;;9.30;7.60;;;5.50;80.60;;;;;;5053832;28;20075;-85
2023/01/23 08:55:05;;;;;;;8.07;6.68;;;5.40;80.50;;;;;;5055536;28;20033;-85
2023/01/23 08:57:31;;;;;;;9.75;7.43;;;5.50;80.60;;;;;;5055260;28;20037;-85
2023/01/23 08:59:56;;;;;;;8.07;6.53;;;5.50;80.60;;;;;;5061639;28;20079;-84
2023/01/23 09:02:22;;;;;;;9.50;7.47;;;5.50;80.60;;;;;;5063747;28;20533;-84
2023/01/23 09:04:49;;;;;;;8.55;7.00;;;5.50;81.20;;;;;;5029874;28;20120;-85
2023/01/23 09:07:14;;;;;;;9.18;7.25;;;5.50;80.50;;;;;;5044238;28;20339;-84
2023/01/23 09:09:40;;;;;;;9.63;7.47;;;5.50;80.50;;;;;;5059456;28;20276;-85
2023/01/23 09:12:07;;;;;;;9.45;6.97;;;5.50;80.60;;;;;;5037909;28;20037;-84
2023/01/23 09:14:32;;;;;;;9.05;7.28;;;5.50;80.60;;;;;;5054189;28;20025;-85
2023/01/23 09:16:58;;;;;;;9.10;7.45;;;5.50;81.20;;;;;;5063910;28;20039;-84
2023/01/23 09:19:24;;;;;;;8.40;6.78;;;5.50;80.50;;;;;;5041591;28;20033;-85
2023/01/23 09:21:53;;;;;;;9.02;7.10;;;5.60;80.50;;;;;;5055765;28;20033;-85
2023/01/23 09:24:19;;;;;;;10.23;7.40;;;5.60;80.50;;;;;;5071386;28;20024;-85
2023/01/23 09:26:45;;;;;;;8.88;6.65;;;5.60;80.50;;;;;;5053015;28;20104;-85
2023/01/23 09:29:11;;;;;;;9.25;7.30;;;5.60;80.50;;;;;;5051296;28;20048;-85
2023/01/23 09:31:36;;;;;;;9.35;7.13;;;5.60;80.50;;;;;;5054163;28;20035;-84
2023/01/23 09:34:02;;;;;;;9.30;6.75;;;5.60;80.50;;;;;;5037357;28;20029;-84
2023/01/23 09:36:28;;;;;;;9.13;6.97;;;5.60;80.50;;;;;;5050022;28;20057;-84
2023/01/23 09:38:54;;;;;;;9.38;7.00;;;5.60;80.50;;;;;;5041870;28;20044;-85
2023/01/23 09:41:24;;;;;;;8.35;7.10;;;5.60;80.40;;;;;;5048933;28;20454;-84
2023/01/23 09:44:06;;;;;;;8.40;6.95;;;5.70;80.50;;;;;;5047920;28;20031;-86
2023/01/23 09:46:46;;;;;;;9.00;7.00;;;5.70;80.50;;;;;;5047353;28;20025;-84
2023/01/23 09:49:40;;;;;;;8.38;6.20;;;5.70;80.50;;;;;;5053428;28;20040;-85
2023/01/23 09:52:14;;;;;;;8.80;7.00;;;5.70;80.50;;;;;;5050939;28;20032;-86
2023/01/23 09:54:43;;;;;;;8.93;7.25;;;5.70;80.40;;;;;;5038998;28;20025;-85
2023/01/23 09:57:44;;;;;;;8.98;6.45;;;5.70;80.40;;;;;;5053364;28;20021;-86
2023/01/23 10:00:33;;;;;;;9.02;6.07;;;5.70;80.50;;;;;;5036831;28;20112;-84
2023/01/23 10:03:10;;;;;;;10.02;6.75;;;5.70;80.40;;;;;;5054233;28;20461;-85
2023/01/23 10:05:42;;;;;;;9.10;6.38;;;5.70;80.40;;;;;;5055667;28;20024;-85
2023/01/23 10:08:40;;;;;;;9.50;6.68;;;5.70;80.30;;;;;;5036525;28;20032;-85
2023/01/23 10:11:41;;;;;;;8.45;6.60;;;5.70;80.40;;;;;;5063781;28;20028;-84
2023/01/23 10:14:28;;;;;;;8.40;6.65;;;5.80;80.40;;;;;;5052996;28;20021;-85
2023/01/23 10:17:19;;;;;;;8.60;6.45;;;5.80;80.30;;;;;;5033952;28;20025;-85
2023/01/23 10:20:15;;;;;;;8.52;6.75;;;5.80;80.40;;;;;;5052938;28;20549;-84
2023/01/23 10:22:50;;;;;;;7.47;6.03;;;5.80;80.40;;;;;;5052395;28;20104;-84
2023/01/23 10:25:25;;;;;;;9.38;6.78;;;5.80;80.40;;;;;;5054902;28;20067;-84
2023/01/23 10:27:58;;;;;;;8.77;6.68;;;5.80;80.40;;;;;;5054593;28;20079;-84
2023/01/23 10:30:28;;;;;;;8.98;6.63;;;5.80;80.40;;;;;;5059319;28;20457;-84
2023/01/23 10:33:17;;;;;;;8.57;6.70;;;5.80;80.40;;;;;;5060331;28;20043;-85
2023/01/23 10:35:49;;;;;;;9.57;6.72;;;5.90;80.50;;;;;;5075464;28;20024;-87
2023/01/23 10:38:38;;;;;;;9.20;6.50;;;5.90;80.40;;;;;;5089106;28;20028;-85
2023/01/23 10:41:13;;;;;;;9.02;6.97;;;5.90;80.60;;;;;;5091174;28;20067;-84
2023/01/23 10:43:44;;;;;;;9.48;7.05;;;5.90;80.70;;;;;;5095967;28;20054;-84
2023/01/23 10:46:16;;;;;;;8.38;6.53;;;5.90;80.50;;;;;;5073610;28;20512;-84
2023/01/23 10:48:50;;;;;;;8.65;6.78;;;5.90;80.50;;;;;;5079877;28;20028;-82
2023/01/23 10:51:52;;;;;;;9.38;7.13;;;5.90;80.50;;;;;;5060993;28;20439;-84
2023/01/23 10:54:19;;;;;;;8.68;6.72;;;5.90;80.50;;;;;;5012208;28;20034;-84
2023/01/23 10:56:52;;;;;;;8.98;6.50;;;5.90;80.40;;;;;;5078441;28;20044;-84
2023/01/23 10:59:40;;;;;;;8.45;6.50;;;6.00;80.50;;;;;;5077779;28;20035;-87
2023/01/23 11:02:12;;;;;;;10.00;6.72;;;6.00;80.50;;;;;;5093248;28;20078;-88
2023/01/23 11:04:39;;;;;;;8.82;6.40;;;6.00;80.50;;;;;;5075835;28;20024;-83
2023/01/23 11:07:05;;;;;;;8.45;6.40;;;6.00;80.50;;;;;;5056579;28;20024;-85
2023/01/23 11:09:32;;;;;;;8.55;6.70;;;6.00;80.40;;;;;;5077335;28;20036;-86
2023/01/23 11:12:03;;;;;;;9.93;6.93;;;6.10;80.50;;;;;;5095940;28;20071;-86
2023/01/23 11:14:30;;;;;;;9.15;6.75;;;6.10;80.50;;;;;;5075335;28;20020;-86
2023/01/23 11:17:32;;;;;;;10.45;7.28;;;6.10;80.40;;;;;;5077571;28;20028;-91
2023/01/23 11:19:58;;;;;;;8.55;6.65;;;6.10;80.40;;;;;;5050488;28;20044;-87
2023/01/23 11:22:35;;;;;;;8.90;6.75;;;6.10;80.30;;;;;;5057523;28;20040;-86
2023/01/23 11:25:30;;;;;;;8.27;6.75;;;6.20;80.40;;;;;;5058803;28;20032;-84
2023/01/23 11:27:59;;;;;;;8.93;6.40;;;6.20;80.40;;;;;;5080269;28;20028;-84
2023/01/23 11:30:40;;;;;;;8.32;6.80;;;6.20;80.20;;;;;;5079682;28;20473;-85
2023/01/23 11:33:23;;;;;;;9.13;6.65;;;6.20;80.20;;;;;;5094862;28;20030;-85
2023/01/23 11:36:21;;;;;;;9.45;6.75;;;6.20;80.30;;;;;;5074892;28;20024;-85
2023/01/23 11:38:52;;;;;;;8.90;6.55;;;6.30;80.30;;;;;;5076848;28;20384;-84
2023/01/23 11:41:19;;;;;;;9.60;7.07;;;6.30;80.30;;;;;;5078334;28;20085;-84
2023/01/23 11:43:44;;;;;;;9.00;6.78;;;6.30;80.20;;;;;;5065212;28;20030;-84
2023/01/23 11:46:22;;;;;;;10.75;7.32;;;6.30;80.20;;;;;;5091035;28;20035;-84
2023/01/23 11:49:26;;;;;;;8.95;6.95;;;6.30;80.20;;;;;;5074833;28;20035;-84
2023/01/23 11:52:08;;;;;;;8.85;6.80;;;6.40;80.20;;;;;;5064603;28;20340;-84
2023/01/23 11:54:46;;;;;;;9.20;7.40;;;6.40;80.20;;;;;;5092288;28;20472;-84
2023/01/23 11:57:22;;;;;;;8.82;6.97;;;6.40;80.10;;;;;;5091750;28;20024;-84
2023/01/23 12:00:05;;;;;;;10.60;7.70;;;6.50;80.20;;;;;;5074790;28;20066;-85
2023/01/23 12:02:57;;;;;;;9.48;7.13;;;6.50;80.10;;;;;;5078891;28;20036;-85
2023/01/23 12:05:38;;;;;;;9.77;7.60;;;6.50;80.20;;;;;;5083368;28;20047;-86
2023/01/23 12:08:18;;;;;;;9.63;7.35;;;6.50;80.10;;;;;;5091321;28;20084;-81
2023/01/23 12:11:02;;;;;;;10.20;7.47;;;6.50;80.10;;;;;;5074591;28;20122;-91
2023/01/23 12:14:06;;;;;;;8.57;6.55;;;6.50;80.10;;;;;;5074461;28;20027;-88
2023/01/23 12:16:34;;;;;;;9.10;6.80;;;6.50;80.10;;;;;;5077295;28;20035;-84
2023/01/23 12:19:05;;;;;;;8.40;6.50;;;6.60;80.10;;;;;;5073047;28;20085;-84
2023/01/23 12:21:52;;;;;;;9.30;7.00;;;6.60;80.10;;;;;;5092165;28;20028;-91
2023/01/23 12:24:37;;;;;;;9.38;7.30;;;6.60;80.10;;;;;;5076282;28;20127;-88
2023/01/23 12:27:39;;;;;;;10.40;7.20;;;6.60;80.00;;;;;;5079215;28;20029;-86
2023/01/23 12:30:23;;;;;;;9.90;6.90;;;6.60;80.00;;;;;;5090371;28;20055;-86
2023/01/23 12:32:58;;;;;;;10.17;7.10;;;6.60;80.00;;;;;;5075800;28;20031;-86
2023/01/23 12:35:45;;;;;;;9.45;7.40;;;6.60;79.90;;;;;;5065466;28;20043;-85
2023/01/23 12:38:30;;;;;;;8.45;6.93;;;6.70;80.00;;;;;;5073257;28;20073;-87
2023/01/23 12:41:27;;;;;;;9.63;7.35;;;6.70;80.00;;;;;;5091989;28;20414;-85
2023/01/23 12:44:09;;;;;;;9.38;6.88;;;6.70;80.00;;;;;;5074426;28;20127;-85
2023/01/23 12:47:20;;;;;;;8.80;7.07;;;6.70;79.90;;;;;;5065178;28;20028;-85
2023/01/23 12:50:18;;;;;;;9.00;6.43;;;6.70;80.00;;;;;;5072607;28;20052;-86
2023/01/23 12:53:04;;;;;;;8.27;6.40;;;6.70;79.90;;;;;;5077939;28;20365;-85
2023/01/23 12:55:39;;;;;;;9.43;6.93;;;6.70;79.90;;;;;;5080643;28;20083;-86
2023/01/23 12:58:06;;;;;;;9.10;7.18;;;6.80;79.90;;;;;;5090438;28;20023;-83
2023/01/23 13:01:16;;;;;;;9.02;7.13;;;6.80;79.90;;;;;;5093731;28;20016;-87
2023/01/23 13:03:51;;;;;;;8.52;6.65;;;6.80;79.90;;;;;;5026455;28;20526;-82
2023/01/23 13:06:29;;;;;;;10.07;7.15;;;6.80;79.80;;;;;;5017948;28;20031;-82
2023/01/23 13:09:33;;;;;;;8.43;6.50;;;6.80;79.80;;;;;;5044964;28;20039;-82
2023/01/23 13:12:11;;;;;;;8.85;6.80;;;6.80;79.90;;;;;;5000875;28;20068;-81
2023/01/23 13:14:42;;;;;;;8.75;6.60;;;6.90;79.80;;;;;;5071947;28;20072;-82
2023/01/23 13:17:29;;;;;;;8.52;6.65;;;6.90;79.90;;;;;;5076540;28;20078;-83
2023/01/23 13:23:28;;;;;;;8.18;5.97;;;6.90;79.80;;;;;;5092418;28;20472;-83
2023/01/23 13:26:14;;;;;;;8.68;6.85;;;6.90;79.80;;;;;;5067963;28;20052;-83
2023/01/23 13:28:47;;;;;;;8.40;6.60;;;6.90;79.80;;;;;;5076687;28;20123;-87